createdAt,value
2018-12-26T00:01:13.613Z,100096.05
2018-12-26T00:03:45.313Z,100086.30
2018-12-26T00:06:18.928Z,100086.97
2018-12-26T00:08:52.331Z,100088.63
2018-12-26T00:11:26.297Z,100083.34
2018-12-26T00:13:59.447Z,100083.83
2018-12-26T00:16:33.416Z,100078.41
2018-12-26T00:19:06.586Z,100076.75
2018-12-26T00:21:40.475Z,100073.45
2018-12-26T00:24:13.432Z,100083.35
2018-12-26T00:26:48.501Z,100082.17
2018-12-26T00:29:22.348Z,100056.63
2018-12-26T00:31:54.301Z,100096.54
2018-12-26T00:34:26.796Z,100099.33
2018-12-26T00:36:59.392Z,100093.56
2018-12-26T00:39:32.375Z,100091.57
2018-12-26T00:42:05.274Z,100093.21
2018-12-26T00:44:37.415Z,100089.61
2018-12-26T00:47:10.267Z,100086.14
2018-12-26T00:49:45.389Z,100090.25
2018-12-26T00:52:18.457Z,100061.55
2018-12-26T00:54:54.013Z,100085.47
2018-12-26T00:57:26.494Z,100099.78
2018-12-26T00:59:59.493Z,100092.88
2018-12-26T01:02:32.404Z,100093.85
2018-12-26T01:05:04.828Z,100086.27
2018-12-26T01:07:38.048Z,100087.25
2018-12-26T01:10:11.743Z,100098.14
2018-12-26T01:12:44.664Z,100098.14
2018-12-26T01:15:16.611Z,100103.08
2018-12-26T01:17:48.571Z,100103.44
2018-12-26T01:20:23.178Z,100105.23
2018-12-26T01:22:56.708Z,100109.34
2018-12-26T01:25:29.659Z,100106.73
2018-12-26T01:28:03.661Z,100109.84
2018-12-26T01:30:38.626Z,100113.96
2018-12-26T01:33:10.256Z,100118.39
2018-12-26T01:35:43.705Z,100108.22
2018-12-26T01:38:17.675Z,100116.59
2018-12-26T01:40:51.628Z,100115.27
2018-12-26T01:43:24.632Z,100118.55
2018-12-26T01:45:58.819Z,100121.55
2018-12-26T01:48:32.806Z,100122.84
2018-12-26T01:51:06.706Z,100111.64
2018-12-26T01:53:37.976Z,100109.02
2018-12-26T01:56:09.637Z,100104.72
2018-12-26T01:58:43.810Z,100102.91
2018-12-26T02:01:16.860Z,100102.09
2018-12-26T02:03:48.894Z,100095.98
2018-12-26T02:06:22.809Z,100087.57
2018-12-26T02:08:56.882Z,100083.12
2018-12-26T02:11:29.795Z,100085.11
2018-12-26T02:14:03.750Z,100081.17
2018-12-26T02:16:39.473Z,100080.98
2018-12-26T02:19:10.814Z,100071.94
2018-12-26T02:21:43.478Z,100073.11
2018-12-26T02:24:17.006Z,100074.89
2018-12-26T02:26:48.862Z,100070.10
2018-12-26T02:29:22.993Z,100065.52
2018-12-26T02:31:56.016Z,100055.97
2018-12-26T02:34:29.868Z,100047.07
2018-12-26T02:37:04.557Z,100042.78
2018-12-26T02:39:37.036Z,100035.06
2018-12-26T02:42:11.573Z,100025.98
2018-12-26T02:44:43.908Z,100032.92
2018-12-26T02:47:16.269Z,100034.23
2018-12-26T02:49:47.979Z,100045.77
2018-12-26T02:52:22.103Z,100036.52
2018-12-26T02:54:55.967Z,100043.09
2018-12-26T02:57:28.079Z,100028.77
2018-12-26T03:00:01.825Z,100037.19
2018-12-26T03:02:33.960Z,100046.39
2018-12-26T03:05:07.306Z,100037.67
2018-12-26T03:07:42.729Z,100031.24
2018-12-26T03:10:15.825Z,100022.70
2018-12-26T03:12:49.084Z,100028.30
2018-12-26T03:15:22.513Z,100024.16
2018-12-26T03:17:56.262Z,100029.27
2018-12-26T03:20:30.273Z,100025.62
2018-12-26T03:23:03.077Z,100020.06
2018-12-26T03:25:35.209Z,100019.55
2018-12-26T03:28:08.121Z,100016.25
2018-12-26T03:30:39.471Z,100020.37
2018-12-26T03:33:10.913Z,100015.92
2018-12-26T03:35:43.208Z,100015.09
2018-12-26T03:38:18.759Z,100017.87
2018-12-26T03:40:51.851Z,100014.45
2018-12-26T03:43:24.415Z,100009.17
2018-12-26T03:45:58.604Z,100013.95
2018-12-26T03:48:31.546Z,100007.50
2018-12-26T03:51:05.944Z,100005.56
2018-12-26T03:53:39.332Z,100006.54
2018-12-26T03:56:10.688Z,100005.88
2018-12-26T03:58:44.318Z,99992.36
2018-12-26T04:01:16.360Z,99998.12
2018-12-26T04:03:50.469Z,99994.33
2018-12-26T04:06:23.385Z,99997.80
2018-12-26T04:08:57.260Z,100005.38
2018-12-26T04:11:31.616Z,100002.23
2018-12-26T04:14:05.550Z,99996.98
2018-12-26T04:16:39.217Z,99978.87
2018-12-26T04:19:10.732Z,99974.43
2018-12-26T04:21:43.467Z,99976.91
2018-12-26T04:24:17.592Z,99980.53
2018-12-26T04:26:51.552Z,99971.30
2018-12-26T04:29:24.446Z,99983.17
2018-12-26T04:31:58.411Z,99977.91
2018-12-26T04:34:29.697Z,99983.34
2018-12-26T04:37:02.432Z,99976.23
2018-12-26T04:39:36.527Z,99975.60
2018-12-26T04:42:09.436Z,99984.81
2018-12-26T04:44:43.623Z,99981.20
2018-12-26T04:47:16.501Z,99982.17
2018-12-26T04:49:47.799Z,99994.69
2018-12-26T04:52:22.996Z,100000.63
2018-12-26T04:54:56.383Z,100002.95
2018-12-26T04:57:28.512Z,99997.00
2018-12-26T05:00:01.477Z,99990.09
2018-12-26T05:02:34.459Z,99991.08
2018-12-26T05:05:06.478Z,99990.42
2018-12-26T05:07:39.613Z,100001.59
2018-12-26T05:10:10.923Z,100007.51
2018-12-26T05:12:43.482Z,100013.25
2018-12-26T05:15:16.615Z,100022.66
2018-12-26T05:17:49.725Z,99911.20
2018-12-26T05:20:23.775Z,100030.34
2018-12-26T05:22:57.087Z,100022.61
2018-12-26T05:25:29.714Z,100028.23
2018-12-26T05:28:05.294Z,100026.54
2018-12-26T05:30:39.663Z,100022.25
2018-12-26T05:33:11.047Z,100017.18
2018-12-26T05:35:44.719Z,100012.72
2018-12-26T05:38:21.965Z,100021.94
2018-12-26T05:40:55.665Z,100015.98
2018-12-26T05:43:28.682Z,100011.91
2018-12-26T05:46:02.660Z,100016.34
2018-12-26T05:48:35.707Z,100010.94
2018-12-26T05:51:09.809Z,100010.77
2018-12-26T05:53:42.876Z,100006.48
2018-12-26T05:56:18.906Z,100001.38
2018-12-26T05:58:53.695Z,100003.86
2018-12-26T06:01:28.950Z,99995.94
2018-12-26T06:04:03.068Z,100006.17
2018-12-26T06:06:36.998Z,99999.26
2018-12-26T06:09:10.761Z,99991.50
2018-12-26T06:11:43.888Z,99993.14
2018-12-26T06:14:17.855Z,100001.55
2018-12-26T06:16:50.990Z,100002.56
2018-12-26T06:19:22.301Z,100004.05
2018-12-26T06:21:55.712Z,100003.07
2018-12-26T06:24:28.987Z,100006.87
2018-12-26T06:27:03.118Z,100008.34
2018-12-26T06:29:37.153Z,100009.66
2018-12-26T06:32:09.998Z,100001.61
2018-12-26T06:34:47.458Z,100006.88
2018-12-26T06:37:20.980Z,100014.14
2018-12-26T06:39:55.171Z,100010.83
2018-12-26T06:42:28.175Z,100010.33
2018-12-26T06:45:02.914Z,100008.20
2018-12-26T06:47:38.348Z,100016.29
2018-12-26T06:50:10.456Z,100017.75
2018-12-26T06:52:44.177Z,100014.13
2018-12-26T06:55:19.019Z,100011.48
2018-12-26T06:57:51.162Z,100009.86
2018-12-26T07:00:25.088Z,100011.51
2018-12-26T07:02:58.115Z,100017.09
2018-12-26T07:05:32.307Z,100028.13
2018-12-26T07:08:04.987Z,100034.39
2018-12-26T07:10:38.038Z,100027.14
2018-12-26T07:13:10.012Z,100015.45
2018-12-26T07:15:42.998Z,100001.94
2018-12-26T07:18:16.989Z,100011.17
2018-12-26T07:20:48.340Z,100005.59
2018-12-26T07:23:24.159Z,99997.68
2018-12-26T07:25:58.756Z,100007.89
2018-12-26T07:28:32.330Z,100012.81
2018-12-26T07:31:07.369Z,100015.97
2018-12-26T07:33:39.382Z,100010.37
2018-12-26T07:36:11.553Z,100004.59
2018-12-26T07:38:45.258Z,100004.24
2018-12-26T07:41:17.532Z,100006.73
2018-12-26T07:43:51.213Z,100003.91
2018-12-26T07:46:25.448Z,99992.87
2018-12-26T07:48:59.513Z,100007.38
2018-12-26T07:51:33.447Z,100016.27
2018-12-26T07:54:05.762Z,100014.80
2018-12-26T07:56:42.653Z,100035.23
2018-12-26T07:59:16.020Z,100029.30
2018-12-26T08:01:49.725Z,100036.39
2018-12-26T08:04:23.477Z,100039.17
2018-12-26T08:06:55.186Z,100032.94
2018-12-26T08:09:28.270Z,100043.78
2018-12-26T08:12:03.353Z,100051.39
2018-12-26T08:14:38.706Z,100061.93
2018-12-26T08:17:12.551Z,100054.35
2018-12-26T08:19:46.664Z,100049.03
2018-12-26T08:22:20.674Z,100040.45
2018-12-26T08:24:52.212Z,100033.20
2018-12-26T08:27:24.602Z,100030.55
2018-12-26T08:29:59.791Z,100035.80
2018-12-26T08:32:32.389Z,100038.75
2018-12-26T08:35:07.778Z,100034.27
2018-12-26T08:37:39.510Z,100036.91
2018-12-26T08:40:11.184Z,100025.34
2018-12-26T08:42:43.546Z,100024.14
2018-12-26T08:45:17.686Z,100032.58
2018-12-26T08:47:50.464Z,100033.07
2018-12-26T08:50:22.002Z,100031.33
2018-12-26T08:52:55.595Z,100036.23
2018-12-26T08:55:27.850Z,100032.77
2018-12-26T08:58:00.683Z,100027.18
2018-12-26T09:00:34.740Z,100032.96
2018-12-26T09:03:06.784Z,100037.52
2018-12-26T09:05:39.859Z,100033.69
2018-12-26T09:08:11.294Z,100019.59
2018-12-26T09:10:47.527Z,100012.19
2018-12-26T09:13:21.725Z,99997.30
2018-12-26T09:15:53.141Z,99986.93
2018-12-26T09:18:25.156Z,99982.69
2018-12-26T09:20:56.637Z,99985.42
2018-12-26T09:23:30.562Z,99993.50
2018-12-26T09:26:05.101Z,99975.50
2018-12-26T09:28:43.835Z,99975.50
2018-12-26T09:31:13.768Z,99957.98
2018-12-26T09:33:47.814Z,99948.84
2018-12-26T09:36:19.227Z,99938.24
2018-12-26T09:38:52.679Z,99931.75
2018-12-26T09:41:26.867Z,99914.62
2018-12-26T09:44:00.096Z,99920.81
2018-12-26T09:46:33.983Z,99917.37
2018-12-26T09:49:05.922Z,99932.67
2018-12-26T09:51:37.832Z,99939.66
2018-12-26T09:54:10.107Z,99948.17
2018-12-26T09:56:42.864Z,99941.42
2018-12-26T09:59:18.477Z,99943.27
2018-12-26T10:01:54.385Z,99931.80
2018-12-26T10:04:27.271Z,99930.47
2018-12-26T10:06:58.576Z,99930.19
2018-12-26T10:09:31.878Z,99943.37
2018-12-26T10:12:09.797Z,99936.56
2018-12-26T10:14:42.149Z,99940.88
2018-12-26T10:17:13.876Z,99930.25
2018-12-26T10:19:45.994Z,99923.75
2018-12-26T10:22:19.997Z,99927.25
2018-12-26T10:24:52.891Z,99914.88
2018-12-26T10:27:25.826Z,99914.80
2018-12-26T10:29:58.171Z,99906.09
2018-12-26T10:32:31.146Z,99907.24
2018-12-26T10:35:11.994Z,99916.91
2018-12-26T10:37:44.231Z,99923.16
2018-12-26T10:40:17.162Z,99929.80
2018-12-26T10:42:50.883Z,99913.67
2018-12-26T10:45:22.973Z,99916.98
2018-12-26T10:47:56.501Z,99907.94
2018-12-26T10:50:33.096Z,99908.42
2018-12-26T10:53:07.432Z,99895.99
2018-12-26T10:55:41.070Z,99904.42
2018-12-26T10:58:15.305Z,99902.88
2018-12-26T11:00:48.466Z,99893.90
2018-12-26T11:03:22.443Z,99879.28
2018-12-26T11:05:56.101Z,99872.17
2018-12-26T11:08:31.754Z,99867.41
2018-12-26T11:11:04.132Z,99856.39
2018-12-26T11:13:37.276Z,99857.73
2018-12-26T11:16:11.060Z,99856.87
2018-12-26T11:18:45.880Z,99868.33
2018-12-26T11:21:17.312Z,99860.83
2018-12-26T11:23:50.808Z,99870.98
2018-12-26T11:26:23.034Z,99859.70
2018-12-26T11:28:56.440Z,99864.92
2018-12-26T11:31:29.326Z,99852.14
2018-12-26T11:34:03.312Z,99850.92
2018-12-26T11:36:37.361Z,99834.34
2018-12-26T11:39:10.564Z,99834.48
2018-12-26T11:41:44.420Z,99830.66
2018-12-26T11:44:17.443Z,99837.27
2018-12-26T11:46:49.515Z,99834.00
2018-12-26T11:49:23.694Z,99837.77
2018-12-26T11:51:56.205Z,99841.19
2018-12-26T11:54:30.552Z,99834.58
2018-12-26T11:57:03.391Z,99830.98
2018-12-26T11:59:39.053Z,99829.28
2018-12-26T12:02:11.053Z,99829.22
2018-12-26T12:04:42.428Z,99828.52
2018-12-26T12:07:14.425Z,99830.78
2018-12-26T12:09:46.695Z,99827.09
2018-12-26T12:12:18.025Z,99825.03
2018-12-26T12:14:51.571Z,99819.13
2018-12-26T12:17:25.577Z,99816.33
2018-12-26T12:19:58.577Z,99822.50
2018-12-26T12:22:32.575Z,99809.55
2018-12-26T12:25:05.559Z,99806.25
2018-12-26T12:27:39.541Z,99804.47
2018-12-26T12:30:11.391Z,99802.52
2018-12-26T12:32:43.526Z,99804.70
2018-12-26T12:35:17.729Z,99800.64
2018-12-26T12:37:50.516Z,99790.77
2018-12-26T12:40:23.535Z,99783.47
2018-12-26T12:42:56.520Z,99785.29
2018-12-26T12:45:28.579Z,99780.05
2018-12-26T12:48:00.026Z,99767.61
2018-12-26T12:50:31.655Z,99780.77
2018-12-26T12:53:03.824Z,99779.77
2018-12-26T12:55:37.092Z,99787.30
2018-12-26T12:58:12.638Z,99791.66
2018-12-26T13:00:44.279Z,99798.31
2018-12-26T13:03:19.494Z,99817.13
2018-12-26T13:05:51.932Z,99822.92
2018-12-26T13:08:25.853Z,99829.27
2018-12-26T13:10:58.682Z,99829.95
2018-12-26T13:13:31.855Z,99836.02
2018-12-26T13:16:05.844Z,99842.43
2018-12-26T13:18:38.013Z,99839.67
2018-12-26T13:21:12.933Z,99839.67
2018-12-26T13:23:45.564Z,99854.13
2018-12-26T13:26:18.239Z,99842.83
2018-12-26T13:28:51.979Z,99846.05
2018-12-26T13:31:26.371Z,99847.30
2018-12-26T13:33:59.058Z,99845.11
2018-12-26T13:36:32.746Z,99838.61
2018-12-26T13:39:07.744Z,99838.78
2018-12-26T13:41:39.929Z,99848.30
2018-12-26T13:44:11.762Z,99852.09
2018-12-26T13:46:43.854Z,99845.90
2018-12-26T13:49:17.973Z,99858.02
2018-12-26T13:51:50.934Z,99860.34
2018-12-26T13:54:26.629Z,99863.73
2018-12-26T13:56:58.823Z,99868.89
2018-12-26T13:59:32.885Z,99865.73
2018-12-26T14:02:07.564Z,99870.83
2018-12-26T14:04:39.885Z,99872.24
2018-12-26T14:07:11.446Z,99878.51
2018-12-26T14:09:44.094Z,99879.34
2018-12-26T14:12:18.050Z,99877.20
2018-12-26T14:14:50.993Z,99873.08
2018-12-26T14:17:23.154Z,99871.32
2018-12-26T14:19:57.180Z,99874.17
2018-12-26T14:22:31.076Z,99875.05
2018-12-26T14:25:07.593Z,99869.22
2018-12-26T14:27:39.002Z,99877.56
2018-12-26T14:30:11.675Z,99876.41
2018-12-26T14:32:45.910Z,99872.47
2018-12-26T14:35:18.059Z,99877.03
2018-12-26T14:37:50.054Z,99882.02
2018-12-26T14:40:23.146Z,99882.05
2018-12-26T14:42:57.154Z,99877.88
2018-12-26T14:45:31.113Z,99876.94
2018-12-26T14:48:05.978Z,99883.25
2018-12-26T14:50:38.250Z,99872.77
2018-12-26T14:53:11.366Z,99873.05
2018-12-26T14:55:45.352Z,99869.22
2018-12-26T14:58:20.493Z,99873.25
2018-12-26T15:00:53.365Z,99868.03
2018-12-26T15:03:27.788Z,99874.72
2018-12-26T15:06:00.383Z,99876.34
2018-12-26T15:08:34.765Z,99874.05
2018-12-26T15:11:08.219Z,99874.73
2018-12-26T15:13:41.406Z,99876.27
2018-12-26T15:16:14.225Z,99878.82
2018-12-26T15:18:47.588Z,99886.17
2018-12-26T15:21:21.504Z,99882.22
2018-12-26T15:23:53.254Z,99878.12
2018-12-26T15:26:24.808Z,99884.09
2018-12-26T15:28:58.320Z,99888.48
2018-12-26T15:31:30.386Z,99884.91
2018-12-26T15:34:02.285Z,99888.23
2018-12-26T15:36:37.925Z,99885.45
2018-12-26T15:39:11.745Z,99888.25
2018-12-26T15:41:43.336Z,99883.69
2018-12-26T15:44:17.546Z,99881.39
2018-12-26T15:46:50.618Z,99887.70
2018-12-26T15:49:24.498Z,99891.12
2018-12-26T15:51:58.599Z,99894.93
2018-12-26T15:54:31.872Z,99881.48
2018-12-26T15:57:04.048Z,99888.67
2018-12-26T15:59:36.922Z,99890.52
2018-12-26T16:02:10.676Z,99898.10
2018-12-26T16:04:43.563Z,99892.22
2018-12-26T16:07:17.715Z,99896.36
2018-12-26T16:09:52.881Z,99895.42
2018-12-26T16:12:24.611Z,99898.76
2018-12-26T16:14:58.584Z,99901.05
2018-12-26T16:17:33.043Z,99911.61
2018-12-26T16:20:08.394Z,99914.58
2018-12-26T16:22:40.353Z,99918.53
2018-12-26T16:25:11.924Z,99918.90
2018-12-26T16:27:44.801Z,99929.77
2018-12-26T16:30:18.720Z,99938.67
2018-12-26T16:32:56.599Z,99946.09
2018-12-26T16:35:29.568Z,99955.00
2018-12-26T16:38:02.811Z,99943.28
2018-12-26T16:40:40.269Z,99940.95
2018-12-26T16:43:13.846Z,99945.91
2018-12-26T16:45:53.232Z,99948.56
2018-12-26T16:48:25.881Z,99952.16
2018-12-26T16:51:01.250Z,99955.45
2018-12-26T16:53:34.017Z,99962.05
2018-12-26T16:56:07.820Z,99969.46
2018-12-26T16:58:43.979Z,99966.00
2018-12-26T17:01:24.198Z,99971.59
2018-12-26T17:04:08.260Z,99967.30
2018-12-26T17:06:43.179Z,99963.84
2018-12-26T17:09:16.001Z,99964.59
2018-12-26T17:11:49.811Z,99965.30
2018-12-26T17:14:27.079Z,99957.56
2018-12-26T17:17:00.798Z,99960.18
2018-12-26T17:19:34.904Z,99954.75
2018-12-26T17:22:09.030Z,99946.95
2018-12-26T17:24:42.122Z,99950.91
2018-12-26T17:27:16.618Z,99950.30
2018-12-26T17:29:51.731Z,99951.22
2018-12-26T17:32:24.189Z,99955.18
2018-12-26T17:34:57.943Z,99960.95
2018-12-26T17:37:31.815Z,99962.27
2018-12-26T17:40:09.320Z,99956.69
2018-12-26T17:42:42.197Z,99965.67
2018-12-26T17:45:22.953Z,99964.99
2018-12-26T17:47:56.050Z,99966.01
2018-12-26T17:50:51.562Z,99962.16
2018-12-26T17:54:14.578Z,99960.80
2018-12-26T17:56:56.252Z,99976.19
2018-12-26T17:59:48.767Z,99976.16
2018-12-26T18:02:25.924Z,99974.69
2018-12-26T18:04:58.285Z,99971.55
2018-12-26T18:07:30.410Z,99971.70
2018-12-26T18:10:06.029Z,99978.64
2018-12-26T18:12:39.235Z,99983.58
2018-12-26T18:15:16.092Z,99983.09
2018-12-26T18:17:48.605Z,99981.95
2018-12-26T18:20:21.225Z,99979.66
2018-12-26T18:22:57.223Z,99972.88
2018-12-26T18:25:30.428Z,99971.70
2018-12-26T18:28:04.147Z,99971.06
2018-12-26T18:30:37.048Z,99967.10
2018-12-26T18:33:10.458Z,99955.91
2018-12-26T18:35:49.638Z,99949.60
2018-12-26T18:38:24.674Z,99962.95
2018-12-26T18:41:02.381Z,99968.56
2018-12-26T18:43:39.020Z,99965.36
2018-12-26T18:46:13.025Z,99963.23
2018-12-26T18:48:46.701Z,99970.08
2018-12-26T18:51:23.981Z,99968.27
2018-12-26T18:54:02.787Z,99966.95
2018-12-26T18:56:38.496Z,99974.04
2018-12-26T18:59:13.070Z,99973.59
2018-12-26T19:01:50.501Z,99974.76
2018-12-26T19:04:23.626Z,99972.91
2018-12-26T19:06:55.632Z,99952.28
2018-12-26T19:09:29.805Z,99957.52
2018-12-26T19:12:05.436Z,99954.44
2018-12-26T19:14:37.468Z,99952.81
2018-12-26T19:17:10.401Z,99947.03
2018-12-26T19:19:45.711Z,99954.16
2018-12-26T19:22:18.766Z,99953.03
2018-12-26T19:24:56.210Z,99954.66
2018-12-26T19:27:30.612Z,99955.70
2018-12-26T19:30:11.588Z,99958.65
2018-12-26T19:32:54.871Z,99955.36
2018-12-26T19:35:30.463Z,99957.48
2018-12-26T19:38:03.055Z,99949.91
2018-12-26T19:40:38.555Z,99944.47
2018-12-26T19:43:16.048Z,99950.36
2018-12-26T19:45:50.920Z,99950.39
2018-12-26T19:48:23.530Z,99939.31
2018-12-26T19:51:08.289Z,99944.40
2018-12-26T19:53:43.194Z,99951.03
2018-12-26T19:56:16.824Z,99960.27
2018-12-26T19:58:51.373Z,99955.82
2018-12-26T20:04:35.776Z,99963.89
2018-12-26T20:07:12.294Z,99958.23
2018-12-26T20:09:46.008Z,99955.11
2018-12-26T20:12:20.046Z,99956.31
2018-12-26T20:14:53.715Z,99947.56
2018-12-26T20:17:31.313Z,99947.56
2018-12-26T20:20:07.460Z,99956.31
2018-12-26T20:22:43.641Z,99955.15
2018-12-26T20:25:16.267Z,99951.00
2018-12-26T20:27:50.938Z,99944.70
2018-12-26T20:30:25.262Z,99941.42
2018-12-26T20:33:02.354Z,99933.54
2018-12-26T20:35:34.023Z,99936.52
2018-12-26T20:38:07.660Z,99934.03
2018-12-26T20:40:41.576Z,99924.30
2018-12-26T20:43:15.310Z,99933.73
2018-12-26T20:45:47.076Z,99946.62
2018-12-26T20:48:23.096Z,99954.38
2018-12-26T20:50:56.740Z,99955.03
2018-12-26T20:53:29.826Z,99959.47
2018-12-26T20:56:05.641Z,99953.06
2018-12-26T20:58:39.109Z,99943.12
2018-12-26T21:01:10.523Z,99943.12
2018-12-26T21:03:43.974Z,99939.87
2018-12-26T21:06:18.483Z,99934.89
2018-12-26T21:08:50.719Z,99933.54
2018-12-26T21:11:25.056Z,99929.95
2018-12-26T21:14:01.435Z,99931.92
2018-12-26T21:16:36.956Z,99936.18
2018-12-26T21:19:10.791Z,99937.80
2018-12-26T21:21:43.114Z,99934.48
2018-12-26T21:24:15.500Z,99936.82
2018-12-26T21:26:51.166Z,99929.88
2018-12-26T21:29:24.623Z,99938.14
2018-12-26T21:31:59.378Z,99940.10
2018-12-26T21:34:33.629Z,99941.42
2018-12-26T21:37:06.908Z,99940.74
2018-12-26T21:39:40.925Z,99940.59
2018-12-26T21:42:17.311Z,99934.52
2018-12-26T21:44:51.246Z,99939.45
2018-12-26T21:47:25.081Z,99935.35
2018-12-26T21:49:59.731Z,99939.42
2018-12-26T21:52:32.042Z,99937.12
2018-12-26T21:55:06.685Z,99933.13
2018-12-26T21:57:39.190Z,99929.54
2018-12-26T22:00:10.910Z,99923.63
2018-12-26T22:02:44.319Z,99915.90
2018-12-26T22:05:18.900Z,99930.60
2018-12-26T22:07:52.211Z,99920.53
2018-12-26T22:10:43.747Z,99918.42
2018-12-26T22:13:47.122Z,99921.67
2018-12-26T22:16:29.040Z,99913.25
2018-12-26T22:19:02.078Z,99917.33
2018-12-26T22:21:37.507Z,99910.13
2018-12-26T22:24:10.492Z,99911.27
2018-12-26T22:26:51.129Z,99907.68
2018-12-26T22:29:29.191Z,99903.53
2018-12-26T22:32:07.477Z,99908.20
2018-12-26T22:34:45.713Z,99905.60
2018-12-26T22:37:20.833Z,99906.58
2018-12-26T22:39:57.686Z,99907.29
2018-12-26T22:42:38.468Z,99906.92
2018-12-26T22:45:14.180Z,99905.30
2018-12-26T22:47:46.139Z,99910.39
2018-12-26T22:50:18.653Z,99900.20
2018-12-26T22:52:52.666Z,99911.55
2018-12-26T22:55:25.083Z,99908.78
2018-12-26T22:58:04.989Z,99917.71
2018-12-26T23:00:44.920Z,99905.01
2018-12-26T23:03:20.522Z,99906.69
2018-12-26T23:05:52.499Z,99902.39
2018-12-26T23:08:25.504Z,99902.89
2018-12-26T23:11:04.550Z,99901.28
2018-12-26T23:13:39.155Z,99908.36
2018-12-26T23:16:12.791Z,99910.54
2018-12-26T23:18:53.092Z,99919.64
2018-12-26T23:21:27.105Z,99911.42
2018-12-26T23:24:02.841Z,99916.23
2018-12-26T23:26:36.647Z,99908.70
2018-12-26T23:29:14.107Z,99916.27
2018-12-26T23:31:49.995Z,99917.91
2018-12-26T23:34:23.626Z,99921.21
2018-12-26T23:37:00.309Z,99928.13
2018-12-26T23:39:34.729Z,99925.14
2018-12-26T23:42:06.695Z,99929.78
2018-12-26T23:44:40.538Z,99930.78
2018-12-26T23:47:12.163Z,99930.94
2018-12-26T23:49:48.619Z,99813.44
2018-12-26T23:52:22.634Z,99914.63
2018-12-26T23:54:58.387Z,99924.00
2018-12-26T23:57:33.368Z,99917.58
